sensor_id;sensor_type;location;lat;lon;timestamp;temperature;humidity
23671;DHT22;12012;51.998;7.614;2024-03-02T00:01:10;7.00;99.90
23671;DHT22;12012;51.998;7.614;2024-03-02T00:03:37;7.00;99.90
23671;DHT22;12012;51.998;7.614;2024-03-02T00:06:04;7.00;99.90
23671;DHT22;12012;51.998;7.614;2024-03-02T00:08:29;7.00;99.90
23671;DHT22;12012;51.998;7.614;2024-03-02T00:10:59;7.00;99.90
23671;DHT22;12012;51.998;7.614;2024-03-02T00:13:25;7.00;99.90
23671;DHT22;12012;51.998;7.614;2024-03-02T00:15:55;6.90;99.90
23671;DHT22;12012;51.998;7.614;2024-03-02T00:20:56;6.80;99.90
23671;DHT22;12012;51.998;7.614;2024-03-02T00:23:23;6.90;99.90
23671;DHT22;12012;51.998;7.614;2024-03-02T00:25:51;6.80;99.90
23671;DHT22;12012;51.998;7.614;2024-03-02T00:28:31;6.80;99.90
23671;DHT22;12012;51.998;7.614;2024-03-02T00:31:12;6.80;99.90
23671;DHT22;12012;51.998;7.614;2024-03-02T00:33:42;6.80;99.90
23671;DHT22;12012;51.998;7.614;2024-03-02T00:36:09;6.80;99.90
23671;DHT22;12012;51.998;7.614;2024-03-02T00:38:50;6.80;99.90
23671;DHT22;12012;51.998;7.614;2024-03-02T00:41:50;6.80;99.90
23671;DHT22;12012;51.998;7.614;2024-03-02T00:44:15;6.80;99.90
23671;DHT22;12012;51.998;7.614;2024-03-02T00:46:42;6.90;99.90
23671;DHT22;12012;51.998;7.614;2024-03-02T00:49:17;6.90;99.90
23671;DHT22;12012;51.998;7.614;2024-03-02T00:51:55;6.90;99.90
23671;DHT22;12012;51.998;7.614;2024-03-02T00:54:23;6.90;99.90
23671;DHT22;12012;51.998;7.614;2024-03-02T00:56:50;6.90;99.90
23671;DHT22;12012;51.998;7.614;2024-03-02T00:59:17;6.90;99.90
23671;DHT22;12012;51.998;7.614;2024-03-02T01:01:42;6.90;99.90
23671;DHT22;12012;51.998;7.614;2024-03-02T01:04:09;6.90;99.90
23671;DHT22;12012;51.998;7.614;2024-03-02T01:06:35;6.90;99.90
23671;DHT22;12012;51.998;7.614;2024-03-02T01:09:01;6.90;99.90
23671;DHT22;12012;51.998;7.614;2024-03-02T01:11:27;6.90;99.90
23671;DHT22;12012;51.998;7.614;2024-03-02T01:13:53;6.80;99.90
23671;DHT22;12012;51.998;7.614;2024-03-02T01:16:19;6.80;99.90
23671;DHT22;12012;51.998;7.614;2024-03-02T01:18:44;6.80;99.90
23671;DHT22;12012;51.998;7.614;2024-03-02T01:21:10;6.80;99.90
23671;DHT22;12012;51.998;7.614;2024-03-02T01:23:35;6.80;99.90
23671;DHT22;12012;51.998;7.614;2024-03-02T01:26:01;6.80;99.90
23671;DHT22;12012;51.998;7.614;2024-03-02T01:28:27;6.80;99.90
23671;DHT22;12012;51.998;7.614;2024-03-02T01:30:53;6.70;99.90
23671;DHT22;12012;51.998;7.614;2024-03-02T01:33:19;6.70;99.90
23671;DHT22;12012;51.998;7.614;2024-03-02T01:35:45;6.70;99.90
23671;DHT22;12012;51.998;7.614;2024-03-02T01:38:11;6.70;99.90
23671;DHT22;12012;51.998;7.614;2024-03-02T01:40:37;6.70;99.90
23671;DHT22;12012;51.998;7.614;2024-03-02T01:43:06;6.60;99.90
23671;DHT22;12012;51.998;7.614;2024-03-02T01:45:33;6.60;99.90
23671;DHT22;12012;51.998;7.614;2024-03-02T01:47:58;6.60;99.90
23671;DHT22;12012;51.998;7.614;2024-03-02T01:50:29;6.50;99.90
23671;DHT22;12012;51.998;7.614;2024-03-02T01:52:58;6.50;99.90
23671;DHT22;12012;51.998;7.614;2024-03-02T01:55:24;6.50;99.90
23671;DHT22;12012;51.998;7.614;2024-03-02T01:57:50;6.50;99.90
23671;DHT22;12012;51.998;7.614;2024-03-02T02:00:22;6.40;99.90
23671;DHT22;12012;51.998;7.614;2024-03-02T02:02:50;6.40;99.90
23671;DHT22;12012;51.998;7.614;2024-03-02T02:05:17;6.30;99.90
23671;DHT22;12012;51.998;7.614;2024-03-02T02:07:43;6.30;99.90
23671;DHT22;12012;51.998;7.614;2024-03-02T02:10:09;6.30;99.90
23671;DHT22;12012;51.998;7.614;2024-03-02T02:12:35;6.30;99.90
23671;DHT22;12012;51.998;7.614;2024-03-02T02:15:01;6.20;99.90
23671;DHT22;12012;51.998;7.614;2024-03-02T02:17:27;6.20;99.90
23671;DHT22;12012;51.998;7.614;2024-03-02T02:19:52;6.20;99.90
23671;DHT22;12012;51.998;7.614;2024-03-02T02:22:18;6.10;99.90
23671;DHT22;12012;51.998;7.614;2024-03-02T02:24:43;6.10;99.90
23671;DHT22;12012;51.998;7.614;2024-03-02T02:27:09;6.10;99.90
23671;DHT22;12012;51.998;7.614;2024-03-02T02:29:35;6.10;99.90
23671;DHT22;12012;51.998;7.614;2024-03-02T02:32:01;6.10;99.90
23671;DHT22;12012;51.998;7.614;2024-03-02T02:34:27;6.00;99.90
23671;DHT22;12012;51.998;7.614;2024-03-02T02:36:53;6.00;99.90
23671;DHT22;12012;51.998;7.614;2024-03-02T02:39:21;5.90;99.90
23671;DHT22;12012;51.998;7.614;2024-03-02T02:41:47;5.90;99.90
23671;DHT22;12012;51.998;7.614;2024-03-02T02:44:13;5.90;99.90
23671;DHT22;12012;51.998;7.614;2024-03-02T02:46:40;5.90;99.90
23671;DHT22;12012;51.998;7.614;2024-03-02T02:49:05;5.90;99.90
23671;DHT22;12012;51.998;7.614;2024-03-02T02:51:31;5.80;99.90
23671;DHT22;12012;51.998;7.614;2024-03-02T02:53:56;5.80;99.90
23671;DHT22;12012;51.998;7.614;2024-03-02T02:56:22;5.80;99.90
23671;DHT22;12012;51.998;7.614;2024-03-02T02:58:47;5.70;99.90
23671;DHT22;12012;51.998;7.614;2024-03-02T03:01:14;5.70;99.90
23671;DHT22;12012;51.998;7.614;2024-03-02T03:03:40;5.60;99.90
23671;DHT22;12012;51.998;7.614;2024-03-02T03:06:06;5.60;99.90
23671;DHT22;12012;51.998;7.614;2024-03-02T03:08:31;5.60;99.90
23671;DHT22;12012;51.998;7.614;2024-03-02T03:10:57;5.60;99.90
23671;DHT22;12012;51.998;7.614;2024-03-02T03:13:22;5.50;99.90
23671;DHT22;12012;51.998;7.614;2024-03-02T03:15:48;5.40;99.90
23671;DHT22;12012;51.998;7.614;2024-03-02T03:18:13;5.40;99.90
23671;DHT22;12012;51.998;7.614;2024-03-02T03:20:39;5.30;99.90
23671;DHT22;12012;51.998;7.614;2024-03-02T03:23:05;5.30;99.90
23671;DHT22;12012;51.998;7.614;2024-03-02T03:25:30;5.30;99.90
23671;DHT22;12012;51.998;7.614;2024-03-02T03:27:56;5.20;99.90
23671;DHT22;12012;51.998;7.614;2024-03-02T03:30:22;5.20;99.90
23671;DHT22;12012;51.998;7.614;2024-03-02T03:32:48;5.20;99.90
23671;DHT22;12012;51.998;7.614;2024-03-02T03:35:14;5.20;99.90
23671;DHT22;12012;51.998;7.614;2024-03-02T03:37:43;5.20;99.90
23671;DHT22;12012;51.998;7.614;2024-03-02T03:40:10;5.20;99.90
23671;DHT22;12012;51.998;7.614;2024-03-02T03:42:36;5.20;99.90
23671;DHT22;12012;51.998;7.614;2024-03-02T03:45:03;5.20;99.90
23671;DHT22;12012;51.998;7.614;2024-03-02T03:47:28;5.30;99.90
23671;DHT22;12012;51.998;7.614;2024-03-02T03:49:54;5.30;99.90
23671;DHT22;12012;51.998;7.614;2024-03-02T03:52:19;5.30;99.90
23671;DHT22;12012;51.998;7.614;2024-03-02T03:54:46;5.30;99.90
23671;DHT22;12012;51.998;7.614;2024-03-02T03:57:12;5.30;99.90
23671;DHT22;12012;51.998;7.614;2024-03-02T03:59:37;5.30;99.90
23671;DHT22;12012;51.998;7.614;2024-03-02T04:02:03;5.30;99.90
23671;DHT22;12012;51.998;7.614;2024-03-02T04:04:29;5.20;99.90
23671;DHT22;12012;51.998;7.614;2024-03-02T04:06:54;5.20;99.90
23671;DHT22;12012;51.998;7.614;2024-03-02T04:09:20;5.20;99.90
23671;DHT22;12012;51.998;7.614;2024-03-02T04:11:45;5.20;99.90
23671;DHT22;12012;51.998;7.614;2024-03-02T04:14:11;5.20;99.90
23671;DHT22;12012;51.998;7.614;2024-03-02T04:16:38;5.20;99.90
23671;DHT22;12012;51.998;7.614;2024-03-02T04:19:03;5.10;99.90
23671;DHT22;12012;51.998;7.614;2024-03-02T04:21:29;5.10;99.90
23671;DHT22;12012;51.998;7.614;2024-03-02T04:23:55;5.10;99.90
23671;DHT22;12012;51.998;7.614;2024-03-02T04:26:24;5.10;99.90
23671;DHT22;12012;51.998;7.614;2024-03-02T04:28:51;5.10;99.90
23671;DHT22;12012;51.998;7.614;2024-03-02T04:31:16;5.10;99.90
23671;DHT22;12012;51.998;7.614;2024-03-02T04:33:42;5.00;99.90
23671;DHT22;12012;51.998;7.614;2024-03-02T04:36:08;5.00;99.90
23671;DHT22;12012;51.998;7.614;2024-03-02T04:38:35;5.00;99.90
23671;DHT22;12012;51.998;7.614;2024-03-02T04:41:00;5.00;99.90
23671;DHT22;12012;51.998;7.614;2024-03-02T04:43:26;5.00;99.90
23671;DHT22;12012;51.998;7.614;2024-03-02T04:45:51;4.90;99.90
23671;DHT22;12012;51.998;7.614;2024-03-02T04:48:17;4.90;99.90
23671;DHT22;12012;51.998;7.614;2024-03-02T04:50:43;4.90;99.90
23671;DHT22;12012;51.998;7.614;2024-03-02T04:53:08;4.90;99.90
23671;DHT22;12012;51.998;7.614;2024-03-02T04:55:34;4.80;99.90
23671;DHT22;12012;51.998;7.614;2024-03-02T04:57:59;4.80;99.90
23671;DHT22;12012;51.998;7.614;2024-03-02T05:00:25;4.80;99.90
23671;DHT22;12012;51.998;7.614;2024-03-02T05:02:50;4.80;99.90
23671;DHT22;12012;51.998;7.614;2024-03-02T05:05:16;4.80;99.90
23671;DHT22;12012;51.998;7.614;2024-03-02T05:07:42;4.80;99.90
23671;DHT22;12012;51.998;7.614;2024-03-02T05:10:09;4.80;99.90
23671;DHT22;12012;51.998;7.614;2024-03-02T05:12:35;4.80;99.90
23671;DHT22;12012;51.998;7.614;2024-03-02T05:15:01;4.80;99.90
23671;DHT22;12012;51.998;7.614;2024-03-02T05:17:27;4.80;99.90
23671;DHT22;12012;51.998;7.614;2024-03-02T05:19:52;4.80;1.00
23671;DHT22;12012;51.998;7.614;2024-03-02T05:22:18;4.90;1.00
23671;DHT22;12012;51.998;7.614;2024-03-02T05:24:43;4.90;1.00
23671;DHT22;12012;51.998;7.614;2024-03-02T05:27:09;4.90;1.00
23671;DHT22;12012;51.998;7.614;2024-03-02T05:29:34;4.90;1.00
23671;DHT22;12012;51.998;7.614;2024-03-02T05:32:00;4.90;1.00
23671;DHT22;12012;51.998;7.614;2024-03-02T05:34:25;5.00;1.00
23671;DHT22;12012;51.998;7.614;2024-03-02T05:36:51;5.00;1.00
23671;DHT22;12012;51.998;7.614;2024-03-02T05:39:16;5.10;1.00
23671;DHT22;12012;51.998;7.614;2024-03-02T05:41:42;5.10;1.00
23671;DHT22;12012;51.998;7.614;2024-03-02T05:44:08;5.20;1.00
23671;DHT22;12012;51.998;7.614;2024-03-02T05:46:33;5.20;1.00
23671;DHT22;12012;51.998;7.614;2024-03-02T05:49:01;5.20;1.00
23671;DHT22;12012;51.998;7.614;2024-03-02T05:51:27;5.20;1.00
23671;DHT22;12012;51.998;7.614;2024-03-02T05:53:53;5.20;1.00
23671;DHT22;12012;51.998;7.614;2024-03-02T05:56:18;5.20;1.00
23671;DHT22;12012;51.998;7.614;2024-03-02T05:58:44;5.20;1.00
23671;DHT22;12012;51.998;7.614;2024-03-02T06:01:28;5.20;1.00
23671;DHT22;12012;51.998;7.614;2024-03-02T06:03:57;5.30;1.00
23671;DHT22;12012;51.998;7.614;2024-03-02T06:06:24;5.30;1.00
23671;DHT22;12012;51.998;7.614;2024-03-02T06:08:50;5.30;1.00
23671;DHT22;12012;51.998;7.614;2024-03-02T06:11:15;5.30;1.00
23671;DHT22;12012;51.998;7.614;2024-03-02T06:13:41;5.30;1.00
23671;DHT22;12012;51.998;7.614;2024-03-02T06:16:07;5.30;1.00
23671;DHT22;12012;51.998;7.614;2024-03-02T06:18:34;5.30;1.00
23671;DHT22;12012;51.998;7.614;2024-03-02T06:20:59;5.30;1.00
23671;DHT22;12012;51.998;7.614;2024-03-02T06:23:26;5.30;1.00
23671;DHT22;12012;51.998;7.614;2024-03-02T06:25:52;5.30;1.00
23671;DHT22;12012;51.998;7.614;2024-03-02T06:28:18;5.20;1.00
23671;DHT22;12012;51.998;7.614;2024-03-02T06:30:43;5.20;1.00
23671;DHT22;12012;51.998;7.614;2024-03-02T06:33:09;5.30;1.00
23671;DHT22;12012;51.998;7.614;2024-03-02T06:35:35;5.30;1.00
23671;DHT22;12012;51.998;7.614;2024-03-02T06:38:01;5.30;1.00
23671;DHT22;12012;51.998;7.614;2024-03-02T06:40:26;5.30;1.00
23671;DHT22;12012;51.998;7.614;2024-03-02T06:42:52;5.30;1.00
23671;DHT22;12012;51.998;7.614;2024-03-02T06:45:18;5.30;1.00
23671;DHT22;12012;51.998;7.614;2024-03-02T06:47:43;5.40;1.00
23671;DHT22;12012;51.998;7.614;2024-03-02T06:50:09;5.40;1.00
23671;DHT22;12012;51.998;7.614;2024-03-02T06:52:35;5.50;1.00
23671;DHT22;12012;51.998;7.614;2024-03-02T06:55:01;5.50;1.00
23671;DHT22;12012;51.998;7.614;2024-03-02T06:57:26;5.50;1.00
23671;DHT22;12012;51.998;7.614;2024-03-02T06:59:52;5.50;1.00
23671;DHT22;12012;51.998;7.614;2024-03-02T07:02:20;5.60;1.00
23671;DHT22;12012;51.998;7.614;2024-03-02T07:04:46;5.60;1.00
23671;DHT22;12012;51.998;7.614;2024-03-02T07:07:12;5.70;1.00
23671;DHT22;12012;51.998;7.614;2024-03-02T07:09:38;5.70;1.00
23671;DHT22;12012;51.998;7.614;2024-03-02T07:12:03;5.80;1.00
23671;DHT22;12012;51.998;7.614;2024-03-02T07:14:29;5.80;1.00
23671;DHT22;12012;51.998;7.614;2024-03-02T07:17:18;5.90;1.00
23671;DHT22;12012;51.998;7.614;2024-03-02T07:19:43;5.90;1.00
23671;DHT22;12012;51.998;7.614;2024-03-02T07:22:09;6.10;1.00
23671;DHT22;12012;51.998;7.614;2024-03-02T07:24:44;6.20;1.00
23671;DHT22;12012;51.998;7.614;2024-03-02T07:27:12;6.30;1.00
23671;DHT22;12012;51.998;7.614;2024-03-02T07:29:38;6.50;1.00
23671;DHT22;12012;51.998;7.614;2024-03-02T07:32:04;6.70;1.00
23671;DHT22;12012;51.998;7.614;2024-03-02T07:34:30;6.90;1.00
23671;DHT22;12012;51.998;7.614;2024-03-02T07:36:56;7.10;1.00
23671;DHT22;12012;51.998;7.614;2024-03-02T07:39:21;7.20;1.00
23671;DHT22;12012;51.998;7.614;2024-03-02T07:41:47;7.40;1.00
23671;DHT22;12012;51.998;7.614;2024-03-02T07:44:13;7.60;1.00
23671;DHT22;12012;51.998;7.614;2024-03-02T07:46:43;7.80;1.00
23671;DHT22;12012;51.998;7.614;2024-03-02T07:49:09;8.00;1.00
23671;DHT22;12012;51.998;7.614;2024-03-02T07:51:35;8.10;99.90
23671;DHT22;12012;51.998;7.614;2024-03-02T07:54:01;8.20;99.90
23671;DHT22;12012;51.998;7.614;2024-03-02T07:56:27;8.40;99.90
23671;DHT22;12012;51.998;7.614;2024-03-02T07:58:53;8.60;99.90
23671;DHT22;12012;51.998;7.614;2024-03-02T08:01:18;8.80;99.90
23671;DHT22;12012;51.998;7.614;2024-03-02T08:03:44;9.00;99.90
23671;DHT22;12012;51.998;7.614;2024-03-02T08:06:16;9.20;99.90
23671;DHT22;12012;51.998;7.614;2024-03-02T08:08:41;9.40;99.90
23671;DHT22;12012;51.998;7.614;2024-03-02T08:11:07;9.60;99.90
23671;DHT22;12012;51.998;7.614;2024-03-02T08:13:32;9.80;99.90
23671;DHT22;12012;51.998;7.614;2024-03-02T08:15:58;10.00;99.90
23671;DHT22;12012;51.998;7.614;2024-03-02T08:18:24;10.20;99.90
23671;DHT22;12012;51.998;7.614;2024-03-02T08:20:50;10.30;99.90
23671;DHT22;12012;51.998;7.614;2024-03-02T08:23:15;10.40;99.90
23671;DHT22;12012;51.998;7.614;2024-03-02T08:25:41;10.60;99.90
23671;DHT22;12012;51.998;7.614;2024-03-02T08:28:07;10.70;99.90
23671;DHT22;12012;51.998;7.614;2024-03-02T08:30:33;10.80;99.90
23671;DHT22;12012;51.998;7.614;2024-03-02T08:32:59;10.90;99.90
23671;DHT22;12012;51.998;7.614;2024-03-02T08:35:24;11.10;99.90
23671;DHT22;12012;51.998;7.614;2024-03-02T08:37:50;11.10;99.90
23671;DHT22;12012;51.998;7.614;2024-03-02T08:40:16;11.20;99.90
23671;DHT22;12012;51.998;7.614;2024-03-02T08:42:41;11.30;99.90
23671;DHT22;12012;51.998;7.614;2024-03-02T08:45:07;11.50;99.90
23671;DHT22;12012;51.998;7.614;2024-03-02T08:47:33;11.50;99.90
23671;DHT22;12012;51.998;7.614;2024-03-02T08:50:00;11.70;99.90
23671;DHT22;12012;51.998;7.614;2024-03-02T08:52:26;11.80;99.90
23671;DHT22;12012;51.998;7.614;2024-03-02T08:54:51;11.80;99.90
23671;DHT22;12012;51.998;7.614;2024-03-02T08:57:17;11.90;99.90
23671;DHT22;12012;51.998;7.614;2024-03-02T08:59:42;12.00;99.90
23671;DHT22;12012;51.998;7.614;2024-03-02T09:02:09;12.10;99.90
23671;DHT22;12012;51.998;7.614;2024-03-02T09:04:35;12.20;99.90
23671;DHT22;12012;51.998;7.614;2024-03-02T09:07:00;12.30;99.90
23671;DHT22;12012;51.998;7.614;2024-03-02T09:09:26;12.40;99.90
23671;DHT22;12012;51.998;7.614;2024-03-02T09:11:51;12.50;99.90
23671;DHT22;12012;51.998;7.614;2024-03-02T09:14:17;12.60;99.90
23671;DHT22;12012;51.998;7.614;2024-03-02T09:16:42;12.90;99.90
23671;DHT22;12012;51.998;7.614;2024-03-02T09:19:08;13.10;99.90
23671;DHT22;12012;51.998;7.614;2024-03-02T09:21:34;13.30;99.90
23671;DHT22;12012;51.998;7.614;2024-03-02T09:24:00;13.50;99.90
23671;DHT22;12012;51.998;7.614;2024-03-02T09:26:27;13.60;99.70
23671;DHT22;12012;51.998;7.614;2024-03-02T09:28:53;13.80;98.40
23671;DHT22;12012;51.998;7.614;2024-03-02T09:31:18;13.90;96.90
23671;DHT22;12012;51.998;7.614;2024-03-02T09:33:44;14.10;95.60
23671;DHT22;12012;51.998;7.614;2024-03-02T09:36:22;14.20;94.00
23671;DHT22;12012;51.998;7.614;2024-03-02T09:38:48;14.30;92.40
23671;DHT22;12012;51.998;7.614;2024-03-02T09:41:16;14.40;91.10
23671;DHT22;12012;51.998;7.614;2024-03-02T09:43:42;14.60;90.60
23671;DHT22;12012;51.998;7.614;2024-03-02T09:46:11;14.70;87.80
23671;DHT22;12012;51.998;7.614;2024-03-02T09:48:37;15.00;88.10
23671;DHT22;12012;51.998;7.614;2024-03-02T09:51:04;15.20;85.40
23671;DHT22;12012;51.998;7.614;2024-03-02T09:53:32;15.30;81.30
23671;DHT22;12012;51.998;7.614;2024-03-02T09:56:02;15.30;78.30
23671;DHT22;12012;51.998;7.614;2024-03-02T09:58:28;15.40;75.60
23671;DHT22;12012;51.998;7.614;2024-03-02T10:00:53;15.50;73.90
23671;DHT22;12012;51.998;7.614;2024-03-02T10:03:19;15.70;73.10
23671;DHT22;12012;51.998;7.614;2024-03-02T10:05:45;16.00;71.60
23671;DHT22;12012;51.998;7.614;2024-03-02T10:08:10;16.10;69.10
23671;DHT22;12012;51.998;7.614;2024-03-02T10:10:37;16.20;65.60
23671;DHT22;12012;51.998;7.614;2024-03-02T10:13:06;16.30;64.00
23671;DHT22;12012;51.998;7.614;2024-03-02T10:15:33;16.30;60.70
23671;DHT22;12012;51.998;7.614;2024-03-02T10:17:58;16.30;58.30
23671;DHT22;12012;51.998;7.614;2024-03-02T10:20:25;16.50;57.40
23671;DHT22;12012;51.998;7.614;2024-03-02T10:22:51;16.60;55.90
23671;DHT22;12012;51.998;7.614;2024-03-02T10:25:30;16.70;54.20
23671;DHT22;12012;51.998;7.614;2024-03-02T10:28:00;17.00;53.40
23671;DHT22;12012;51.998;7.614;2024-03-02T10:30:26;17.30;52.50
23671;DHT22;12012;51.998;7.614;2024-03-02T10:32:53;17.60;52.50
23671;DHT22;12012;51.998;7.614;2024-03-02T10:35:20;17.80;50.70
23671;DHT22;12012;51.998;7.614;2024-03-02T10:37:48;18.00;48.40
23671;DHT22;12012;51.998;7.614;2024-03-02T10:40:14;18.00;46.90
23671;DHT22;12012;51.998;7.614;2024-03-02T10:42:41;18.00;43.90
23671;DHT22;12012;51.998;7.614;2024-03-02T10:45:09;18.10;41.90
23671;DHT22;12012;51.998;7.614;2024-03-02T10:47:36;17.70;40.70
23671;DHT22;12012;51.998;7.614;2024-03-02T10:50:04;17.50;39.20
23671;DHT22;12012;51.998;7.614;2024-03-02T10:52:39;17.60;39.40
23671;DHT22;12012;51.998;7.614;2024-03-02T10:55:06;17.70;37.10
23671;DHT22;12012;51.998;7.614;2024-03-02T10:57:53;17.90;37.20
23671;DHT22;12012;51.998;7.614;2024-03-02T11:00:19;18.20;36.50
23671;DHT22;12012;51.998;7.614;2024-03-02T11:02:57;18.70;35.90
23671;DHT22;12012;51.998;7.614;2024-03-02T11:05:28;19.10;34.20
23671;DHT22;12012;51.998;7.614;2024-03-02T11:08:01;19.40;34.30
23671;DHT22;12012;51.998;7.614;2024-03-02T11:10:34;19.50;32.50
23671;DHT22;12012;51.998;7.614;2024-03-02T11:13:05;19.80;31.70
23671;DHT22;12012;51.998;7.614;2024-03-02T11:15:31;20.10;30.30
23671;DHT22;12012;51.998;7.614;2024-03-02T11:17:58;20.40;29.50
23671;DHT22;12012;51.998;7.614;2024-03-02T11:20:24;20.80;28.50
23671;DHT22;12012;51.998;7.614;2024-03-02T11:22:50;21.20;27.90
23671;DHT22;12012;51.998;7.614;2024-03-02T11:25:27;21.50;26.50
23671;DHT22;12012;51.998;7.614;2024-03-02T11:35:37;23.90;21.20
23671;DHT22;12012;51.998;7.614;2024-03-02T11:38:03;24.40;18.90
23671;DHT22;12012;51.998;7.614;2024-03-02T11:40:29;25.00;16.30
23671;DHT22;12012;51.998;7.614;2024-03-02T11:42:55;25.40;7.90
23671;DHT22;12012;51.998;7.614;2024-03-02T11:45:25;25.90;3.20
23671;DHT22;12012;51.998;7.614;2024-03-02T11:47:52;26.50;1.30
23671;DHT22;12012;51.998;7.614;2024-03-02T11:50:34;26.50;1.00
23671;DHT22;12012;51.998;7.614;2024-03-02T11:53:05;26.60;1.00
23671;DHT22;12012;51.998;7.614;2024-03-02T11:55:37;26.70;1.00
23671;DHT22;12012;51.998;7.614;2024-03-02T11:58:08;26.90;1.00
23671;DHT22;12012;51.998;7.614;2024-03-02T12:00:34;26.90;1.00
23671;DHT22;12012;51.998;7.614;2024-03-02T12:05:27;27.30;1.00
23671;DHT22;12012;51.998;7.614;2024-03-02T12:08:01;26.80;1.00
23671;DHT22;12012;51.998;7.614;2024-03-02T12:10:27;26.90;1.00
23671;DHT22;12012;51.998;7.614;2024-03-02T12:13:11;26.60;1.00
23671;DHT22;12012;51.998;7.614;2024-03-02T12:15:38;27.00;1.00
23671;DHT22;12012;51.998;7.614;2024-03-02T12:18:04;27.80;1.00
23671;DHT22;12012;51.998;7.614;2024-03-02T12:20:32;28.50;1.00
23671;DHT22;12012;51.998;7.614;2024-03-02T12:22:59;29.10;1.00
23671;DHT22;12012;51.998;7.614;2024-03-02T12:25:25;28.00;1.00
23671;DHT22;12012;51.998;7.614;2024-03-02T12:27:55;26.50;1.00
23671;DHT22;12012;51.998;7.614;2024-03-02T12:30:21;26.10;1.00
23671;DHT22;12012;51.998;7.614;2024-03-02T12:32:48;24.90;1.00
23671;DHT22;12012;51.998;7.614;2024-03-02T12:35:14;24.10;1.00
23671;DHT22;12012;51.998;7.614;2024-03-02T12:37:49;25.20;1.00
23671;DHT22;12012;51.998;7.614;2024-03-02T12:40:17;26.30;1.00
23671;DHT22;12012;51.998;7.614;2024-03-02T12:42:46;27.30;1.00
23671;DHT22;12012;51.998;7.614;2024-03-02T12:45:12;26.80;1.00
23671;DHT22;12012;51.998;7.614;2024-03-02T12:47:40;26.60;1.00
23671;DHT22;12012;51.998;7.614;2024-03-02T12:50:06;27.60;1.00
23671;DHT22;12012;51.998;7.614;2024-03-02T12:52:32;28.20;1.00
23671;DHT22;12012;51.998;7.614;2024-03-02T12:54:59;28.50;1.00
23671;DHT22;12012;51.998;7.614;2024-03-02T12:57:26;27.30;1.00
23671;DHT22;12012;51.998;7.614;2024-03-02T13:00:01;25.50;1.00
23671;DHT22;12012;51.998;7.614;2024-03-02T13:02:30;24.80;1.00
23671;DHT22;12012;51.998;7.614;2024-03-02T13:04:57;24.80;1.00
23671;DHT22;12012;51.998;7.614;2024-03-02T13:07:24;24.00;1.00
23671;DHT22;12012;51.998;7.614;2024-03-02T13:09:50;23.20;1.00
23671;DHT22;12012;51.998;7.614;2024-03-02T13:12:16;22.20;1.00
23671;DHT22;12012;51.998;7.614;2024-03-02T13:14:42;21.40;1.00
23671;DHT22;12012;51.998;7.614;2024-03-02T13:17:09;20.70;1.00
23671;DHT22;12012;51.998;7.614;2024-03-02T13:19:35;20.40;1.00
23671;DHT22;12012;51.998;7.614;2024-03-02T13:22:00;20.70;1.00
23671;DHT22;12012;51.998;7.614;2024-03-02T13:24:29;21.30;1.00
23671;DHT22;12012;51.998;7.614;2024-03-02T13:26:55;21.90;1.00
23671;DHT22;12012;51.998;7.614;2024-03-02T13:29:22;22.00;1.00
23671;DHT22;12012;51.998;7.614;2024-03-02T13:31:48;22.10;1.00
23671;DHT22;12012;51.998;7.614;2024-03-02T13:34:14;21.90;1.00
23671;DHT22;12012;51.998;7.614;2024-03-02T13:36:39;21.40;1.00
23671;DHT22;12012;51.998;7.614;2024-03-02T13:39:05;20.90;1.00
23671;DHT22;12012;51.998;7.614;2024-03-02T13:41:32;20.40;1.00
23671;DHT22;12012;51.998;7.614;2024-03-02T13:43:57;19.80;1.00
23671;DHT22;12012;51.998;7.614;2024-03-02T13:46:26;19.30;1.00
23671;DHT22;12012;51.998;7.614;2024-03-02T13:48:52;19.00;1.00
23671;DHT22;12012;51.998;7.614;2024-03-02T13:51:18;18.60;1.00
23671;DHT22;12012;51.998;7.614;2024-03-02T13:53:43;18.40;1.00
23671;DHT22;12012;51.998;7.614;2024-03-02T13:56:09;18.20;1.00
23671;DHT22;12012;51.998;7.614;2024-03-02T13:58:35;18.00;1.00
23671;DHT22;12012;51.998;7.614;2024-03-02T14:01:00;17.80;1.00
23671;DHT22;12012;51.998;7.614;2024-03-02T14:03:27;17.60;1.00
23671;DHT22;12012;51.998;7.614;2024-03-02T14:05:53;17.60;1.00
23671;DHT22;12012;51.998;7.614;2024-03-02T14:08:19;17.70;1.00
23671;DHT22;12012;51.998;7.614;2024-03-02T14:10:44;18.70;1.00
23671;DHT22;12012;51.998;7.614;2024-03-02T14:13:10;18.90;1.00
23671;DHT22;12012;51.998;7.614;2024-03-02T14:15:35;19.70;1.00
23671;DHT22;12012;51.998;7.614;2024-03-02T14:18:05;19.70;1.00
23671;DHT22;12012;51.998;7.614;2024-03-02T14:20:31;19.10;1.00
23671;DHT22;12012;51.998;7.614;2024-03-02T14:22:58;18.50;1.00
23671;DHT22;12012;51.998;7.614;2024-03-02T14:25:24;18.30;1.00
23671;DHT22;12012;51.998;7.614;2024-03-02T14:27:50;18.20;1.00
23671;DHT22;12012;51.998;7.614;2024-03-02T14:30:16;18.40;1.00
23671;DHT22;12012;51.998;7.614;2024-03-02T14:32:42;18.20;1.00
23671;DHT22;12012;51.998;7.614;2024-03-02T14:35:08;17.90;1.00
23671;DHT22;12012;51.998;7.614;2024-03-02T14:37:36;17.70;1.00
23671;DHT22;12012;51.998;7.614;2024-03-02T14:40:02;17.50;1.00
23671;DHT22;12012;51.998;7.614;2024-03-02T14:42:31;17.30;1.00
23671;DHT22;12012;51.998;7.614;2024-03-02T14:44:57;17.20;1.00
23671;DHT22;12012;51.998;7.614;2024-03-02T14:47:23;17.20;1.00
23671;DHT22;12012;51.998;7.614;2024-03-02T14:49:50;17.10;1.00
23671;DHT22;12012;51.998;7.614;2024-03-02T14:52:15;17.00;1.00
23671;DHT22;12012;51.998;7.614;2024-03-02T14:54:42;16.90;1.00
23671;DHT22;12012;51.998;7.614;2024-03-02T14:57:08;17.00;1.00
23671;DHT22;12012;51.998;7.614;2024-03-02T14:59:34;17.20;1.00
23671;DHT22;12012;51.998;7.614;2024-03-02T15:01:59;17.40;1.00
23671;DHT22;12012;51.998;7.614;2024-03-02T15:04:25;17.60;1.00
23671;DHT22;12012;51.998;7.614;2024-03-02T15:06:50;17.70;1.00
23671;DHT22;12012;51.998;7.614;2024-03-02T15:09:16;17.80;1.00
23671;DHT22;12012;51.998;7.614;2024-03-02T15:11:45;17.70;1.00
23671;DHT22;12012;51.998;7.614;2024-03-02T15:14:11;17.70;1.00
23671;DHT22;12012;51.998;7.614;2024-03-02T15:16:37;17.70;1.00
23671;DHT22;12012;51.998;7.614;2024-03-02T15:19:02;17.80;1.00
23671;DHT22;12012;51.998;7.614;2024-03-02T15:21:28;17.90;1.00
23671;DHT22;12012;51.998;7.614;2024-03-02T15:23:54;18.00;1.00
23671;DHT22;12012;51.998;7.614;2024-03-02T15:26:19;18.00;1.00
23671;DHT22;12012;51.998;7.614;2024-03-02T15:28:45;18.10;1.00
23671;DHT22;12012;51.998;7.614;2024-03-02T15:31:10;18.20;1.00
23671;DHT22;12012;51.998;7.614;2024-03-02T15:33:36;18.20;1.00
23671;DHT22;12012;51.998;7.614;2024-03-02T15:36:02;18.20;1.00
23671;DHT22;12012;51.998;7.614;2024-03-02T15:38:28;18.10;1.00
23671;DHT22;12012;51.998;7.614;2024-03-02T15:40:53;18.00;1.00
23671;DHT22;12012;51.998;7.614;2024-03-02T15:43:19;17.90;1.00
23671;DHT22;12012;51.998;7.614;2024-03-02T15:45:45;17.90;1.00
23671;DHT22;12012;51.998;7.614;2024-03-02T15:48:10;17.70;1.00
23671;DHT22;12012;51.998;7.614;2024-03-02T15:50:36;17.50;1.00
23671;DHT22;12012;51.998;7.614;2024-03-02T15:53:03;17.30;1.00
23671;DHT22;12012;51.998;7.614;2024-03-02T15:55:32;17.20;1.00